Time;durP1;ratioP1;P1;durP2;ratioP2;P2;SDS_P1;SDS_P2;PMS_P1;PMS_P2;Temp;Humidity;BMP_temperature;BMP_pressure;BME280_temperature;BME280_humidity;BME280_pressure;Samples;Min_cycle;Max_cycle;Signal;HPM_P1;HPM_P2
2022/03/03 00:02:06;;;;;;;96.40;43.22;;;1.00;99.90;;;;;;6101708;23;20512;-89
2022/03/03 00:04:32;;;;;;;97.68;43.67;;;0.90;99.90;;;;;;6077094;23;20020;-89
2022/03/03 00:06:58;;;;;;;93.57;43.72;;;0.90;99.90;;;;;;6125167;23;20024;-89
2022/03/03 00:09:24;;;;;;;99.95;44.92;;;0.80;99.90;;;;;;6104069;23;20434;-88
2022/03/03 00:11:50;;;;;;;100.07;45.90;;;0.80;99.90;;;;;;6125543;23;20013;-90
2022/03/03 00:14:15;;;;;;;97.82;43.80;;;0.80;99.90;;;;;;6100892;23;20193;-89
2022/03/03 00:16:41;;;;;;;91.07;44.10;;;0.80;99.90;;;;;;6125465;23;20024;-89
2022/03/03 00:19:07;;;;;;;93.07;41.97;;;0.70;99.90;;;;;;6125865;23;20151;-89
2022/03/03 00:21:34;;;;;;;106.07;44.78;;;0.70;99.90;;;;;;6101417;23;20067;-89
2022/03/03 00:24:00;;;;;;;93.82;42.05;;;0.70;99.90;;;;;;6077330;23;20024;-89
2022/03/03 00:26:26;;;;;;;99.30;45.13;;;0.70;99.90;;;;;;6100118;23;20036;-89
2022/03/03 00:28:52;;;;;;;99.72;44.67;;;0.60;99.90;;;;;;6100431;23;20013;-89
2022/03/03 00:31:17;;;;;;;103.55;44.25;;;0.60;99.90;;;;;;6100710;23;20486;-89
2022/03/03 00:33:43;;;;;;;99.68;43.63;;;0.60;99.90;;;;;;6125119;23;20095;-89
2022/03/03 00:36:09;;;;;;;100.90;44.85;;;0.60;99.90;;;;;;6101560;23;20059;-88
2022/03/03 00:38:36;;;;;;;104.93;44.88;;;0.60;99.90;;;;;;6077836;23;20052;-88
2022/03/03 00:41:02;;;;;;;102.15;43.72;;;0.50;99.90;;;;;;6101573;23;20013;-89
2022/03/03 00:43:28;;;;;;;99.95;44.42;;;0.60;99.90;;;;;;6077946;23;20031;-89
2022/03/03 00:45:54;;;;;;;95.55;42.97;;;0.50;99.90;;;;;;6076554;23;20478;-88
2022/03/03 00:48:20;;;;;;;98.15;43.47;;;0.50;99.90;;;;;;6078092;23;20175;-90
2022/03/03 00:50:46;;;;;;;103.63;46.00;;;0.50;99.90;;;;;;6100354;23;20481;-89
2022/03/03 00:53:12;;;;;;;107.25;46.15;;;0.40;99.90;;;;;;6124562;23;20021;-90
2022/03/03 00:55:37;;;;;;;104.57;44.15;;;0.40;99.90;;;;;;6101073;23;20193;-90
2022/03/03 00:58:03;;;;;;;99.45;44.58;;;0.40;99.90;;;;;;6125074;23;20020;-90
2022/03/03 01:00:30;;;;;;;104.32;45.00;;;0.50;99.90;;;;;;6125305;23;20023;-90
2022/03/03 01:02:56;;;;;;;97.55;44.15;;;0.40;99.90;;;;;;6124660;23;20017;-90
2022/03/03 01:05:22;;;;;;;99.93;44.63;;;0.40;99.90;;;;;;6076130;23;20017;-90
2022/03/03 01:07:47;;;;;;;99.15;45.33;;;0.40;99.90;;;;;;6125593;23;20018;-90
2022/03/03 01:10:13;;;;;;;101.10;44.55;;;0.40;99.90;;;;;;6100794;23;20013;-89
2022/03/03 01:12:39;;;;;;;93.97;41.70;;;0.30;99.90;;;;;;6124699;23;20028;-89
2022/03/03 01:15:08;;;;;;;94.60;44.65;;;0.30;99.90;;;;;;6102527;23;20100;-89
2022/03/03 01:17:35;;;;;;;94.97;44.03;;;0.30;99.90;;;;;;6124972;23;20017;-89
2022/03/03 01:20:02;;;;;;;98.00;42.95;;;0.30;99.90;;;;;;6100608;23;20580;-89
2022/03/03 01:22:28;;;;;;;104.97;45.28;;;0.30;99.90;;;;;;6124131;23;20025;-89
2022/03/03 01:24:53;;;;;;;107.60;46.70;;;0.20;99.90;;;;;;6100386;23;20099;-88
2022/03/03 01:27:19;;;;;;;103.72;45.55;;;0.20;99.90;;;;;;6077351;23;20013;-88
2022/03/03 01:29:45;;;;;;;98.15;43.53;;;0.20;99.90;;;;;;6099745;23;20048;-89
2022/03/03 01:32:11;;;;;;;103.90;44.65;;;0.20;99.90;;;;;;6123812;23;20453;-89
2022/03/03 01:34:38;;;;;;;98.05;42.50;;;0.20;99.90;;;;;;6101097;23;20084;-89
2022/03/03 01:37:04;;;;;;;92.43;41.85;;;0.20;99.90;;;;;;6124126;23;20023;-89
2022/03/03 01:39:30;;;;;;;101.10;43.70;;;0.10;99.90;;;;;;6100535;23;20148;-90
2022/03/03 01:41:57;;;;;;;103.53;47.25;;;0.10;99.90;;;;;;6101335;23;20023;-91
2022/03/03 01:44:23;;;;;;;99.72;45.83;;;0.10;99.90;;;;;;6078652;23;20097;-90
2022/03/03 01:46:55;;;;;;;96.53;42.15;;;0.10;99.90;;;;;;6102174;23;20032;-89
2022/03/03 01:49:21;;;;;;;91.43;42.60;;;0.10;99.90;;;;;;6126576;23;20140;-89
2022/03/03 01:51:47;;;;;;;100.53;43.92;;;0.10;99.90;;;;;;6126804;23;20044;-89
2022/03/03 01:54:14;;;;;;;104.63;45.65;;;0.10;99.90;;;;;;6101956;23;20304;-90
2022/03/03 01:56:41;;;;;;;99.15;45.55;;;0.10;99.90;;;;;;6077645;23;20517;-89
2022/03/03 01:59:08;;;;;;;99.80;44.50;;;0.10;99.90;;;;;;6102631;23;20052;-90
2022/03/03 02:01:36;;;;;;;99.85;44.83;;;0.00;99.90;;;;;;6101263;23;20107;-90
2022/03/03 02:04:06;;;;;;;95.47;44.03;;;0.10;99.90;;;;;;6102340;23;20028;-89
2022/03/03 02:06:31;;;;;;;101.10;44.08;;;0.10;99.90;;;;;;6126577;23;20013;-90
2022/03/03 02:08:57;;;;;;;98.95;44.95;;;0.10;99.90;;;;;;6126182;23;20305;-90
2022/03/03 02:11:24;;;;;;;98.97;42.97;;;0.00;99.90;;;;;;6101663;23;20013;-88
2022/03/03 02:13:50;;;;;;;107.82;43.75;;;0.00;99.90;;;;;;6125979;23;20013;-89
2022/03/03 02:16:16;;;;;;;98.38;45.65;;;0.00;99.90;;;;;;6075367;23;20394;-90
2022/03/03 02:18:43;;;;;;;101.20;45.10;;;0.00;99.90;;;;;;6078546;23;20020;-89
2022/03/03 02:21:13;;;;;;;97.93;43.25;;;0.00;99.90;;;;;;6125451;23;20052;-89
2022/03/03 02:23:40;;;;;;;92.03;42.17;;;0.00;99.90;;;;;;6078649;23;20078;-88
2022/03/03 02:26:11;;;;;;;93.22;42.58;;;-0.10;99.90;;;;;;6104668;23;20032;-89
2022/03/03 02:28:37;;;;;;;100.20;45.35;;;-0.10;99.90;;;;;;6126659;23;20044;-89
2022/03/03 02:31:03;;;;;;;104.63;44.70;;;-0.10;99.90;;;;;;6103259;23;20009;-89
2022/03/03 02:33:29;;;;;;;95.65;44.15;;;-0.10;99.90;;;;;;6131428;23;20406;-88
2022/03/03 02:35:54;;;;;;;109.15;46.10;;;0.00;99.90;;;;;;6093582;23;20445;-90
2022/03/03 02:38:20;;;;;;;102.75;44.72;;;-0.10;99.90;;;;;;6078025;23;20100;-89
2022/03/03 02:40:46;;;;;;;98.60;43.75;;;-0.20;99.90;;;;;;6077494;23;20013;-90
2022/03/03 02:43:12;;;;;;;100.15;44.72;;;-0.10;99.90;;;;;;6077393;23;20131;-90
2022/03/03 02:45:37;;;;;;;96.35;43.45;;;-0.20;99.90;;;;;;6077838;23;20017;-89
2022/03/03 02:48:03;;;;;;;95.05;42.97;;;-0.20;99.90;;;;;;6101055;23;20017;-89
2022/03/03 02:50:29;;;;;;;98.63;43.08;;;-0.20;99.90;;;;;;6077330;23;20013;-89
2022/03/03 02:53:01;;;;;;;110.43;46.10;;;;;;;;;;6076528;23;20013;-90
2022/03/03 02:55:28;;;;;;;105.72;44.70;;;;;;;;;;6125244;23;20336;-89
2022/03/03 02:57:54;;;;;;;104.13;45.20;;;;;;;;;;6126038;23;20358;-89
2022/03/03 03:00:34;;;;;;;102.28;44.13;;;;;;;;;;6124400;23;20013;-88
2022/03/03 03:03:01;;;;;;;105.75;43.97;;;;;;;;;;6128149;23;20016;-89
2022/03/03 03:05:27;;;;;;;102.90;45.00;;;;;;;;;;6124766;23;20485;-88
2022/03/03 03:07:53;;;;;;;109.57;45.55;;;;;;;;;;6124183;23;20017;-89
2022/03/03 03:10:19;;;;;;;98.50;43.72;;;;;;;;;;6126582;23;20013;-89
2022/03/03 03:12:45;;;;;;;103.43;44.90;;;;;;;;;;6124525;23;20088;-90
2022/03/03 03:15:11;;;;;;;111.47;47.22;;;;;;;;;;6125784;23;20020;-90
2022/03/03 03:17:38;;;;;;;104.63;45.80;;;;;;;;;;6150247;23;20512;-90
2022/03/03 03:20:06;;;;;;;106.25;46.53;;;;;;;;;;6126282;23;20024;-89
2022/03/03 03:22:32;;;;;;;102.45;45.13;;;;;;;;;;6125420;23;20021;-89
2022/03/03 03:24:59;;;;;;;103.03;43.90;;;;;;;;;;6126481;23;20017;-88
2022/03/03 03:27:25;;;;;;;106.40;44.78;;;;;;;;;;6126925;23;20017;-88
2022/03/03 03:29:51;;;;;;;113.32;46.55;;;;;;;;;;6125995;23;20020;-89
2022/03/03 03:32:17;;;;;;;113.60;47.33;;;;;;;;;;6125604;23;20082;-89
2022/03/03 03:34:43;;;;;;;96.55;42.55;;;;;;;;;;6126182;23;20358;-89
2022/03/03 03:37:10;;;;;;;104.18;45.08;;;;;;;;;;6126563;23;20017;-89
2022/03/03 03:39:36;;;;;;;99.63;44.33;;;;;;;;;;6126254;23;20075;-89
2022/03/03 03:42:02;;;;;;;108.50;45.95;;;;;;;;;;6124367;23;20013;-89
2022/03/03 03:44:28;;;;;;;95.07;43.38;;;;;;;;;;6125454;23;20017;-89
2022/03/03 03:46:54;;;;;;;104.60;44.22;;;;;;;;;;6125726;23;20017;-90
2022/03/03 03:49:20;;;;;;;104.47;43.25;;;;;;;;;;6125431;23;20044;-89
2022/03/03 03:51:47;;;;;;;100.45;44.00;;;;;;;;;;6125489;23;20092;-88
2022/03/03 03:54:13;;;;;;;108.78;46.40;;;;;;;;;;6126240;23;20024;-90
2022/03/03 03:56:39;;;;;;;102.63;46.38;;;;;;;;;;6125027;23;20040;-89
2022/03/03 03:59:05;;;;;;;103.30;45.95;;;;;;;;;;6125887;23;20140;-91
2022/03/03 04:01:31;;;;;;;100.82;44.65;;;;;;;;;;6125358;23;20013;-90
2022/03/03 04:03:58;;;;;;;97.63;44.95;;;;;;;;;;6124520;23;20596;-90
2022/03/03 04:06:24;;;;;;;98.22;43.25;;;;;;;;;;6126147;23;20017;-90
2022/03/03 04:08:50;;;;;;;98.57;44.05;;;-0.20;99.90;;;;;;6126805;23;20501;-90
2022/03/03 04:11:16;;;;;;;97.07;43.67;;;-0.60;99.90;;;;;;6102131;23;20013;-90
2022/03/03 04:13:42;;;;;;;105.45;47.00;;;-0.60;99.90;;;;;;6103603;23;20020;-89
2022/03/03 04:16:08;;;;;;;95.95;43.97;;;-0.60;99.90;;;;;;6101332;23;20040;-91
2022/03/03 04:18:34;;;;;;;91.10;42.40;;;-0.60;99.90;;;;;;6125420;23;20020;-90
2022/03/03 04:20:59;;;;;;;98.85;45.97;;;-0.60;99.90;;;;;;6126431;23;20040;-90
2022/03/03 04:23:25;;;;;;;104.72;44.55;;;-0.60;99.90;;;;;;6100017;23;20017;-89
2022/03/03 04:25:51;;;;;;;101.30;45.30;;;-0.60;99.90;;;;;;6076991;23;20048;-90
2022/03/03 04:28:17;;;;;;;105.90;43.22;;;-0.50;99.90;;;;;;6100118;23;20014;-90
2022/03/03 04:30:43;;;;;;;92.00;42.03;;;;;;;;;;6099964;23;20469;-90
2022/03/03 04:33:09;;;;;;;95.75;42.03;;;;;;;;;;6125565;23;20442;-90
2022/03/03 04:35:35;;;;;;;92.50;42.45;;;;;;;;;;6122322;23;20036;-89
2022/03/03 04:38:01;;;;;;;89.20;41.92;;;;;;;;;;6125250;23;20019;-90
2022/03/03 04:40:27;;;;;;;88.60;43.25;;;;;;;;;;6125070;23;20481;-89
2022/03/03 04:42:53;;;;;;;91.35;41.85;;;;;;;;;;6124787;23;20024;-90
2022/03/03 04:45:19;;;;;;;94.18;42.08;;;;;;;;;;6125418;23;20024;-90
2022/03/03 04:47:46;;;;;;;86.18;40.58;;;;;;;;;;6124388;23;20021;-90
2022/03/03 04:50:11;;;;;;;89.35;40.53;;;-0.60;99.90;;;;;;6126949;23;20009;-89
2022/03/03 04:52:38;;;;;;;86.50;40.83;;;;;;;;;;6100817;23;20437;-90
2022/03/03 04:55:04;;;;;;;86.85;41.17;;;;;;;;;;6125326;23;20116;-89
2022/03/03 04:57:31;;;;;;;82.60;39.95;;;;;;;;;;6124971;23;20017;-89
2022/03/03 04:59:57;;;;;;;81.57;38.10;;;;;;;;;;6126198;23;20042;-89
2022/03/03 05:02:23;;;;;;;82.38;38.88;;;;;;;;;;6124983;23;20017;-89
2022/03/03 05:04:49;;;;;;;83.00;38.78;;;;;;;;;;6125814;23;20068;-89
2022/03/03 05:07:15;;;;;;;80.15;39.42;;;;;;;;;;6124871;23;20362;-89
2022/03/03 05:09:42;;;;;;;81.65;39.47;;;;;;;;;;6125378;23;20497;-89
2022/03/03 05:12:08;;;;;;;82.15;40.58;;;;;;;;;;6126367;23;20577;-89
2022/03/03 05:14:34;;;;;;;77.75;38.42;;;;;;;;;;6125920;23;20048;-88
2022/03/03 05:17:01;;;;;;;81.90;39.90;;;;;;;;;;6127809;23;20024;-88
2022/03/03 05:19:27;;;;;;;84.57;38.88;;;;;;;;;;6127970;23;20023;-88
2022/03/03 05:21:55;;;;;;;87.13;39.50;;;;;;;;;;6127436;23;20020;-88
2022/03/03 05:27:46;;;;;;;85.32;38.85;;;-0.60;99.90;;;;;;6043302;23;20097;-89
2022/03/03 05:30:12;;;;;;;84.78;37.47;;;-0.90;99.90;;;;;;6105642;23;20016;-90
2022/03/03 05:32:38;;;;;;;85.47;40.20;;;-0.90;99.90;;;;;;6128928;23;20013;-90
2022/03/03 05:35:05;;;;;;;86.53;39.70;;;-0.90;99.90;;;;;;6129353;23;20400;-90
2022/03/03 05:37:32;;;;;;;81.65;38.38;;;-0.90;99.90;;;;;;6104075;23;20017;-90
2022/03/03 05:39:58;;;;;;;80.18;36.78;;;-1.00;99.90;;;;;;6128805;23;20045;-90
2022/03/03 05:42:25;;;;;;;79.45;37.92;;;-1.00;99.90;;;;;;6130314;23;20095;-90
2022/03/03 05:44:53;;;;;;;76.50;37.67;;;-1.00;99.90;;;;;;6105779;23;20079;-90
2022/03/03 05:47:19;;;;;;;84.38;40.28;;;-1.10;99.90;;;;;;6105543;23;20017;-90
2022/03/03 05:49:50;;;;;;;85.55;38.78;;;-1.10;99.90;;;;;;6130088;23;20009;-90
2022/03/03 05:52:17;;;;;;;80.30;38.70;;;-1.10;99.90;;;;;;6129566;23;20024;-90
2022/03/03 05:54:43;;;;;;;82.13;39.55;;;-1.10;99.90;;;;;;6144383;23;20021;-91
2022/03/03 05:57:24;;;;;;;81.95;38.30;;;-1.10;99.90;;;;;;6123675;23;20021;-90
2022/03/03 05:59:53;;;;;;;80.50;38.42;;;-1.00;99.90;;;;;;6144365;23;20035;-88
2022/03/03 06:02:20;;;;;;;75.53;38.03;;;-1.10;99.90;;;;;;6141569;23;20016;-89
2022/03/03 06:04:51;;;;;;;84.10;39.97;;;-1.10;99.90;;;;;;6132553;23;20047;-89
2022/03/03 06:07:26;;;;;;;79.43;38.30;;;-1.10;99.90;;;;;;6102889;23;20052;-89
2022/03/03 06:09:56;;;;;;;81.55;38.65;;;-1.20;99.90;;;;;;6124726;23;20036;-89
2022/03/03 06:12:54;;;;;;;74.40;38.10;;;-1.20;99.90;;;;;;6121121;23;20021;-89
2022/03/03 06:15:23;;;;;;;82.93;38.95;;;-1.20;99.90;;;;;;6119665;23;20021;-89
2022/03/03 06:17:50;;;;;;;78.85;36.92;;;-1.20;99.90;;;;;;6125204;23;20087;-90
2022/03/03 06:20:18;;;;;;;79.30;38.83;;;-1.20;99.90;;;;;;6124970;23;20409;-90
2022/03/03 06:22:43;;;;;;;77.07;40.00;;;-1.20;99.90;;;;;;6098538;23;20021;-89
2022/03/03 06:25:11;;;;;;;78.80;39.28;;;-1.20;99.90;;;;;;6093998;23;20071;-91
2022/03/03 06:27:37;;;;;;;76.03;37.60;;;-1.20;99.90;;;;;;6104120;23;20013;-90
2022/03/03 06:30:05;;;;;;;84.75;38.85;;;-1.20;99.90;;;;;;6104213;23;20013;-90
2022/03/03 06:32:31;;;;;;;78.85;39.70;;;-1.20;99.90;;;;;;6105831;23;20096;-91
2022/03/03 06:34:57;;;;;;;79.30;36.90;;;-1.20;99.90;;;;;;6129630;23;20036;-91
2022/03/03 06:37:23;;;;;;;83.07;38.50;;;-1.10;99.90;;;;;;6134084;23;20025;-91
2022/03/03 06:39:48;;;;;;;81.20;38.58;;;-1.10;99.90;;;;;;6079833;23;20017;-91
2022/03/03 06:42:14;;;;;;;82.10;37.47;;;-1.10;99.90;;;;;;6076891;23;20023;-90
2022/03/03 06:44:40;;;;;;;78.03;38.38;;;-1.10;99.90;;;;;;6100462;23;20565;-90
2022/03/03 06:47:06;;;;;;;79.68;39.50;;;-1.00;99.90;;;;;;6101615;23;20076;-90
2022/03/03 06:49:32;;;;;;;83.13;39.63;;;-1.00;99.90;;;;;;6151291;23;20410;-90
2022/03/03 06:52:02;;;;;;;78.93;37.85;;;-1.00;99.90;;;;;;6127090;23;20009;-93
2022/03/03 06:54:31;;;;;;;74.55;37.03;;;-1.00;99.90;;;;;;6127729;23;20027;-93
2022/03/03 06:56:58;;;;;;;75.03;37.63;;;-1.00;99.90;;;;;;6129102;23;20083;-92
2022/03/03 06:59:26;;;;;;;77.45;38.00;;;-0.90;99.90;;;;;;6127751;23;20021;-90
2022/03/03 07:01:54;;;;;;;73.75;37.58;;;-0.90;99.90;;;;;;6128431;23;20027;-91
2022/03/03 07:04:21;;;;;;;69.43;37.72;;;-0.90;99.90;;;;;;6129634;23;20258;-91
2022/03/03 07:06:49;;;;;;;79.28;37.88;;;-0.90;99.90;;;;;;6127949;23;20016;-91
2022/03/03 07:09:16;;;;;;;74.65;37.75;;;-0.80;99.90;;;;;;6105434;23;20490;-90
2022/03/03 07:11:44;;;;;;;73.90;36.83;;;-0.70;99.90;;;;;;6129380;23;20024;-90
2022/03/03 07:14:10;;;;;;;70.03;36.22;;;-0.70;99.90;;;;;;6109467;23;20013;-91
2022/03/03 07:16:41;;;;;;;73.85;37.03;;;-0.60;99.90;;;;;;6128071;23;20009;-90
2022/03/03 07:19:38;;;;;;;72.30;37.65;;;-0.70;99.90;;;;;;6128994;23;20083;-92
2022/03/03 07:22:34;;;;;;;70.53;37.40;;;-0.70;99.90;;;;;;6127035;23;20024;-92
2022/03/03 07:25:08;;;;;;;75.78;37.88;;;-0.60;99.90;;;;;;6128362;23;20526;-91
2022/03/03 07:27:39;;;;;;;71.78;36.88;;;-0.50;99.90;;;;;;6127555;23;20052;-90
2022/03/03 07:30:09;;;;;;;75.75;37.05;;;-0.50;99.90;;;;;;6129139;23;20473;-91
2022/03/03 07:32:54;;;;;;;68.72;35.15;;;-0.40;99.90;;;;;;6128165;23;20350;-91
2022/03/03 07:35:27;;;;;;;72.90;37.42;;;-0.40;99.90;;;;;;6127893;23;20017;-92
2022/03/03 07:37:57;;;;;;;71.43;36.25;;;;;;;;;;6127057;23;20017;-91
2022/03/03 07:40:27;;;;;;;76.25;37.47;;;-0.30;99.90;;;;;;6125693;23;20021;-91
2022/03/03 07:42:57;;;;;;;69.00;34.40;;;-0.20;99.90;;;;;;6125187;23;20017;-91
2022/03/03 07:45:24;;;;;;;69.13;35.35;;;;;;;;;;6126390;23;20017;-91
2022/03/03 07:47:51;;;;;;;72.65;36.72;;;-0.10;99.90;;;;;;6127390;23;20017;-91
2022/03/03 07:50:17;;;;;;;67.85;34.45;;;0.00;99.90;;;;;;6129539;23;20013;-91
2022/03/03 07:52:48;;;;;;;63.97;33.17;;;0.10;99.90;;;;;;6126385;23;20521;-90
2022/03/03 07:55:13;;;;;;;65.82;33.90;;;0.20;99.90;;;;;;6124610;23;20016;-91
2022/03/03 07:57:55;;;;;;;65.90;33.83;;;0.20;99.90;;;;;;6122550;23;20032;-91
2022/03/03 08:00:21;;;;;;;65.15;35.00;;;0.30;99.90;;;;;;6096744;23;20023;-90
2022/03/03 08:02:50;;;;;;;65.20;34.22;;;0.40;99.90;;;;;;6069990;23;20017;-90
2022/03/03 08:05:16;;;;;;;66.80;35.15;;;;;;;;;;6118915;23;20107;-91
2022/03/03 08:07:44;;;;;;;67.00;34.05;;;;;;;;;;6127840;23;20025;-91
2022/03/03 08:10:11;;;;;;;64.50;34.33;;;0.40;99.90;;;;;;6125836;23;20017;-91
2022/03/03 08:12:38;;;;;;;58.13;32.35;;;0.60;99.90;;;;;;6098980;23;20515;-91
2022/03/03 08:15:05;;;;;;;60.83;32.53;;;;;;;;;;6122538;23;20074;-90
2022/03/03 08:17:33;;;;;;;58.70;34.15;;;;;;;;;;6120196;23;20032;-90
2022/03/03 08:20:00;;;;;;;59.15;32.33;;;;;;;;;;6118028;23;20434;-90
2022/03/03 08:22:27;;;;;;;55.65;30.90;;;;;;;;;;6121471;23;20020;-91
2022/03/03 08:24:57;;;;;;;60.30;33.95;;;;;;;;;;6125510;23;20350;-90
2022/03/03 08:27:25;;;;;;;61.67;33.67;;;;;;;;;;6120504;23;20060;-90
2022/03/03 08:29:51;;;;;;;55.67;31.00;;;;;;;;;;6118977;23;20040;-90
2022/03/03 08:32:18;;;;;;;59.65;31.98;;;;;;;;;;6118253;23;20020;-91
2022/03/03 08:34:51;;;;;;;61.80;33.58;;;;;;;;;;6117118;23;20503;-91
2022/03/03 08:37:34;;;;;;;58.90;30.33;;;;;;;;;;6118117;23;20484;-90
2022/03/03 08:40:01;;;;;;;51.85;29.90;;;0.70;99.90;;;;;;6120763;23;20028;-90
2022/03/03 08:42:38;;;;;;;56.15;30.05;;;1.80;99.90;;;;;;6070137;23;20017;-90
2022/03/03 08:45:07;;;;;;;52.70;29.08;;;1.80;99.90;;;;;;6099722;23;20027;-90
2022/03/03 08:47:33;;;;;;;54.60;30.02;;;1.90;99.90;;;;;;6120380;23;20024;-89
2022/03/03 08:50:19;;;;;;;46.83;28.65;;;;;;;;;;6119133;23;20024;-91
2022/03/03 08:52:46;;;;;;;52.00;27.33;;;;;;;;;;6118694;23;20009;-91
2022/03/03 08:55:13;;;;;;;49.22;28.33;;;;;;;;;;6118915;23;20017;-91
2022/03/03 08:57:40;;;;;;;45.72;27.98;;;;;;;;;;6121599;23;20027;-89
2022/03/03 09:00:08;;;;;;;51.28;29.45;;;;;;;;;;6124309;23;20024;-91
2022/03/03 09:02:35;;;;;;;49.25;27.13;;;2.10;99.90;;;;;;6123185;23;20043;-89
2022/03/03 09:05:01;;;;;;;46.00;27.85;;;2.80;99.90;;;;;;6128150;23;20023;-90
2022/03/03 09:07:28;;;;;;;47.38;27.25;;;;;;;;;;6125447;23;20079;-91
2022/03/03 09:09:55;;;;;;;47.17;26.85;;;;;;;;;;6117682;23;20017;-89
2022/03/03 09:12:24;;;;;;;43.30;27.23;;;;;;;;;;6117940;23;20055;-91
2022/03/03 09:14:50;;;;;;;46.17;27.05;;;;;;;;;;6120563;23;20417;-90
2022/03/03 09:17:16;;;;;;;43.90;25.35;;;;;;;;;;6113952;23;20386;-90
2022/03/03 09:19:42;;;;;;;42.45;25.67;;;;;;;;;;6115939;23;20021;-89
2022/03/03 09:22:09;;;;;;;47.10;27.17;;;;;;;;;;6116478;23;20017;-92
2022/03/03 09:24:35;;;;;;;44.80;27.23;;;2.80;99.90;;;;;;6113304;23;20149;-91
2022/03/03 09:27:04;;;;;;;46.78;25.83;;;;;;;;;;6093907;23;20365;-92
2022/03/03 09:29:33;;;;;;;45.13;25.05;;;3.60;99.90;;;;;;6117758;23;20081;-89
2022/03/03 09:32:00;;;;;;;48.72;27.70;;;3.70;99.90;;;;;;6116387;23;20017;-90
2022/03/03 09:34:26;;;;;;;41.80;24.92;;;3.80;99.90;;;;;;6125436;23;20017;-91
2022/03/03 09:36:55;;;;;;;39.42;24.90;;;3.90;99.90;;;;;;6119018;23;20017;-91
2022/03/03 09:39:21;;;;;;;37.80;23.95;;;;;;;;;;6119647;23;20366;-92
2022/03/03 11:43:52;;;;;;;30.00;18.35;;;;;;;;;;6198093;22;20043;-91
2022/03/03 11:46:52;;;;;;;28.13;17.77;;;;;;;;;;6141249;23;20084;-89
2022/03/03 11:49:20;;;;;;;27.35;17.83;;;;;;;;;;6096466;23;20525;-90
2022/03/03 11:51:55;;;;;;;29.23;18.17;;;;;;;;;;6140485;23;20044;-90
2022/03/03 11:54:33;;;;;;;28.23;18.17;;;;;;;;;;6140687;23;20013;-89
2022/03/03 11:57:09;;;;;;;24.88;16.48;;;;;;;;;;6090094;23;20021;-90
2022/03/03 11:59:40;;;;;;;25.25;17.30;;;;;;;;;;6138305;23;20032;-90
2022/03/03 12:02:40;;;;;;;30.98;18.90;;;6.30;99.90;;;;;;6143085;23;20017;-91
2022/03/03 12:05:28;;;;;;;30.05;18.73;;;9.50;77.90;;;;;;6117220;23;20535;-89
2022/03/03 12:08:03;;;;;;;29.65;18.42;;;9.50;76.10;;;;;;6145181;23;20024;-89
2022/03/03 12:10:33;;;;;;;31.77;19.90;;;9.70;77.00;;;;;;6138310;23;20016;-90
2022/03/03 12:13:26;;;;;;;35.17;20.67;;;9.80;77.50;;;;;;6091655;23;20023;-89
2022/03/03 12:16:25;;;;;;;29.27;19.95;;;10.00;78.20;;;;;;6119589;23;20025;-90
2022/03/03 12:18:56;;;;;;;31.30;21.33;;;10.10;77.60;;;;;;6121978;23;20283;-90
2022/03/03 12:21:44;;;;;;;32.47;21.67;;;10.10;78.60;;;;;;6138533;23;20029;-90
2022/03/03 12:24:13;;;;;;;31.75;21.85;;;10.10;77.00;;;;;;6117195;23;20104;-89
2022/03/03 12:26:51;;;;;;;37.00;22.40;;;10.10;76.80;;;;;;6144509;23;20425;-90
2022/03/03 12:29:39;;;;;;;29.65;20.13;;;10.00;75.40;;;;;;6143426;23;20021;-89
2022/03/03 12:32:24;;;;;;;29.20;20.00;;;10.10;74.60;;;;;;6141169;23;20446;-91
2022/03/03 12:34:56;;;;;;;34.05;20.77;;;10.00;74.50;;;;;;6142618;23;20095;-90
2022/03/03 12:37:22;;;;;;;30.00;19.83;;;10.10;73.60;;;;;;6118823;23;20056;-91
2022/03/03 12:39:54;;;;;;;29.60;19.52;;;10.20;74.90;;;;;;6117390;23;20394;-90
2022/03/03 12:42:22;;;;;;;24.08;17.45;;;10.40;75.50;;;;;;6121779;23;20027;-91
2022/03/03 12:44:52;;;;;;;28.23;18.10;;;10.70;74.90;;;;;;6139030;23;20021;-92
2022/03/03 12:47:36;;;;;;;27.63;17.60;;;11.00;73.80;;;;;;6120324;23;20013;-89
2022/03/03 12:50:18;;;;;;;23.77;17.10;;;11.40;73.80;;;;;;6142980;23;20017;-91
2022/03/03 12:52:55;;;;;;;26.73;17.33;;;11.80;73.10;;;;;;6140475;23;20387;-88
2022/03/03 12:55:58;;;;;;;23.00;16.15;;;12.10;70.20;;;;;;6142499;23;20017;-88
2022/03/03 12:58:29;;;;;;;23.92;15.82;;;12.50;70.30;;;;;;6093429;23;20095;-89
2022/03/03 13:00:55;;;;;;;20.20;14.65;;;12.50;70.00;;;;;;6140648;23;20517;-89
2022/03/03 13:03:21;;;;;;;22.27;16.30;;;12.30;69.40;;;;;;6142111;23;20024;-89
2022/03/03 13:05:55;;;;;;;20.20;15.02;;;11.90;67.90;;;;;;6116547;23;20048;-89
2022/03/03 13:08:32;;;;;;;25.08;15.40;;;11.70;67.30;;;;;;6148257;23;20013;-90
2022/03/03 13:11:14;;;;;;;21.38;14.38;;;11.40;66.10;;;;;;6121676;23;20097;-89
2022/03/03 13:13:47;;;;;;;19.55;13.18;;;11.20;66.70;;;;;;6145442;23;20087;-88
2022/03/03 13:16:13;;;;;;;;;;;11.00;66.70;;;;;;6143091;23;20135;-89
2022/03/03 13:18:47;;;;;;;16.45;10.93;;;10.90;65.20;;;;;;6141956;23;19931;-90
2022/03/03 13:21:17;;;;;;;16.85;11.15;;;10.90;68.00;;;;;;6116986;23;20915;-90
2022/03/03 13:23:49;;;;;;;18.88;12.43;;;10.80;66.90;;;;;;6139201;23;20021;-90
2022/03/03 13:26:15;;;;;;;17.85;12.45;;;10.80;66.00;;;;;;6141262;23;20013;-89
2022/03/03 13:29:06;;;;;;;19.40;14.43;;;10.80;66.00;;;;;;6145268;23;20047;-90
2022/03/03 13:31:35;;;;;;;22.73;14.25;;;10.80;65.50;;;;;;6140351;23;20788;-89
2022/03/03 13:34:28;;;;;;;21.90;14.90;;;10.80;64.80;;;;;;6139742;23;20104;-90
2022/03/03 13:37:22;;;;;;;20.60;13.77;;;10.70;65.00;;;;;;6145104;23;20071;-90
2022/03/03 13:39:50;;;;;;;17.42;12.05;;;10.80;63.80;;;;;;6127019;23;20023;-90
2022/03/03 13:42:29;;;;;;;19.13;12.35;;;11.00;65.60;;;;;;6152804;23;20048;-91
2022/03/03 13:44:59;;;;;;;17.10;12.50;;;12.00;64.70;;;;;;6146494;23;20023;-90
2022/03/03 13:47:31;;;;;;;20.92;14.93;;;12.60;63.50;;;;;;6124591;23;20072;-90
2022/03/03 13:50:17;;;;;;;21.05;14.07;;;12.50;62.80;;;;;;6145520;23;20036;-92
2022/03/03 13:56:12;;;;;;;17.73;12.90;;;14.30;61.80;;;;;;6143482;23;20020;-90
2022/03/03 13:58:38;;;;;;;17.92;13.30;;;15.30;61.20;;;;;;6143846;23;20918;-90
2022/03/03 14:01:07;;;;;;;19.60;13.35;;;15.30;60.90;;;;;;6148266;23;20028;-91
2022/03/03 14:03:42;;;;;;;15.68;12.18;;;14.90;59.40;;;;;;6126405;23;20075;-91
2022/03/03 14:06:14;;;;;;;16.80;11.80;;;14.20;58.80;;;;;;6129436;23;20020;-91
2022/03/03 14:08:51;;;;;;;16.98;11.93;;;13.90;58.90;;;;;;6152761;23;20020;-89
2022/03/03 14:11:30;;;;;;;16.55;12.20;;;14.10;58.50;;;;;;6129872;23;20017;-89
2022/03/03 14:14:28;;;;;;;19.33;13.60;;;14.00;56.70;;;;;;6132792;23;20087;-91
2022/03/03 14:16:54;;;;;;;17.45;13.48;;;13.80;56.40;;;;;;6150843;23;20021;-89
2022/03/03 14:19:23;;;;;;;18.13;13.10;;;13.90;56.90;;;;;;6149174;23;20016;-90
2022/03/03 14:21:52;;;;;;;18.02;12.80;;;14.00;56.20;;;;;;6148175;23;20535;-90
2022/03/03 14:24:21;;;;;;;19.08;13.63;;;14.30;55.80;;;;;;6148102;23;20044;-91
2022/03/03 14:26:52;;;;;;;16.15;11.85;;;14.30;55.30;;;;;;6123004;23;20315;-91
2022/03/03 14:29:21;;;;;;;20.73;12.90;;;14.60;55.80;;;;;;6106190;23;20017;-90
2022/03/03 14:31:47;;;;;;;14.68;11.13;;;15.00;54.80;;;;;;6124431;23;20311;-90
2022/03/03 14:34:48;;;;;;;17.20;11.15;;;15.10;53.90;;;;;;6146638;23;20017;-89
2022/03/03 14:37:20;;;;;;;13.35;10.77;;;15.00;53.00;;;;;;6150998;23;20357;-88
2022/03/03 14:39:55;;;;;;;13.45;10.10;;;15.40;53.10;;;;;;6097778;23;20123;-90
2022/03/03 14:42:29;;;;;;;15.43;10.68;;;16.10;51.30;;;;;;6124745;23;20121;-89
2022/03/03 14:44:59;;;;;;;15.32;10.48;;;16.90;50.00;;;;;;6120210;23;20140;-91
2022/03/03 14:47:26;;;;;;;16.23;11.50;;;17.70;49.60;;;;;;6124011;23;20017;-91
2022/03/03 14:50:09;;;;;;;14.43;10.55;;;18.40;49.10;;;;;;6123149;23;20075;-91
2022/03/03 14:52:35;;;;;;;13.65;11.02;;;19.20;49.00;;;;;;6102935;23;20099;-90
2022/03/03 14:55:11;;;;;;;13.73;10.73;;;19.90;48.70;;;;;;6105083;23;20122;-90
2022/03/03 14:57:37;;;;;;;13.18;10.10;;;20.70;46.70;;;;;;6128761;23;20048;-89
2022/03/03 15:00:36;;;;;;;12.07;10.00;;;21.40;46.80;;;;;;6120948;23;20028;-90
2022/03/03 15:05:54;;;;;;;14.27;10.45;;;21.40;44.60;;;;;;6140816;23;20021;-90
2022/03/03 15:08:23;;;;;;;12.90;9.70;;;21.00;44.10;;;;;;6122954;23;20096;-91
2022/03/03 15:10:49;;;;;;;13.15;10.48;;;20.60;43.40;;;;;;6099940;23;20044;-90
2022/03/03 15:13:18;;;;;;;12.77;10.68;;;20.10;43.90;;;;;;6122547;23;20353;-89
2022/03/03 15:15:44;;;;;;;13.05;10.35;;;19.60;43.00;;;;;;6097018;23;20025;-90
2022/03/03 15:18:19;;;;;;;12.90;9.98;;;19.00;42.60;;;;;;6121731;23;20020;-90
2022/03/03 15:20:45;;;;;;;13.00;9.93;;;18.20;38.90;;;;;;6097461;23;20450;-89